sensor_id;sensor_type;location;lat;lon;timestamp;pressure;altitude;pressure_sealevel;temperature;humidity
55759;BME280;41678;52.126;20.664;2022-12-18T00:02:52;101675.03;;;-5.22;98.18
55759;BME280;41678;52.126;20.664;2022-12-18T00:08:12;101677.31;;;-5.15;98.41
55759;BME280;41678;52.126;20.664;2022-12-18T00:13:33;101684.22;;;-5.14;98.59
55759;BME280;41678;52.126;20.664;2022-12-18T00:18:55;101682.66;;;-5.12;98.71
55759;BME280;41678;52.126;20.664;2022-12-18T00:24:17;101692.38;;;-5.08;98.70
55759;BME280;41678;52.126;20.664;2022-12-18T00:29:38;101691.81;;;-5.04;98.61
55759;BME280;41678;52.126;20.664;2022-12-18T00:34:59;101696.94;;;-5.04;98.80
55759;BME280;41678;52.126;20.664;2022-12-18T00:40:18;101713.38;;;-5.02;98.66
55759;BME280;41678;52.126;20.664;2022-12-18T00:45:38;101711.84;;;-5.00;98.61
55759;BME280;41678;52.126;20.664;2022-12-18T00:50:57;101715.41;;;-4.98;98.88
55759;BME280;41678;52.126;20.664;2022-12-18T00:56:17;101722.56;;;-4.93;98.70
55759;BME280;41678;52.126;20.664;2022-12-18T01:01:37;101732.41;;;-4.88;98.88
55759;BME280;41678;52.126;20.664;2022-12-18T01:06:57;101734.06;;;-4.88;98.53
55759;BME280;41678;52.126;20.664;2022-12-18T01:12:17;101745.47;;;-4.85;99.06
55759;BME280;41678;52.126;20.664;2022-12-18T01:17:37;101745.25;;;-4.76;98.70
55759;BME280;41678;52.126;20.664;2022-12-18T01:22:57;101749.41;;;-4.78;99.05
55759;BME280;41678;52.126;20.664;2022-12-18T01:28:16;101755.88;;;-4.71;98.75
55759;BME280;41678;52.126;20.664;2022-12-18T01:33:35;101762.94;;;-4.68;98.84
55759;BME280;41678;52.126;20.664;2022-12-18T01:38:55;101767.97;;;-4.58;98.79
55759;BME280;41678;52.126;20.664;2022-12-18T01:50:20;101784.38;;;-4.56;98.84
55759;BME280;41678;52.126;20.664;2022-12-18T01:55:51;101791.31;;;-4.55;98.74
55759;BME280;41678;52.126;20.664;2022-12-18T02:01:13;101804.66;;;-4.49;98.88
55759;BME280;41678;52.126;20.664;2022-12-18T02:06:39;101803.84;;;-4.48;98.88
55759;BME280;41678;52.126;20.664;2022-12-18T02:12:17;101838.50;;;-4.43;98.51
55759;BME280;41678;52.126;20.664;2022-12-18T02:18:35;101831.22;;;-4.48;98.55
55759;BME280;41678;52.126;20.664;2022-12-18T02:24:08;101853.28;;;-4.52;98.64
55759;BME280;41678;52.126;20.664;2022-12-18T02:29:54;101856.84;;;-4.50;98.81
55759;BME280;41678;52.126;20.664;2022-12-18T02:35:19;101853.94;;;-4.43;98.55
55759;BME280;41678;52.126;20.664;2022-12-18T02:40:44;101861.34;;;-4.47;98.61
55759;BME280;41678;52.126;20.664;2022-12-18T02:46:56;101852.72;;;-4.48;98.88
55759;BME280;41678;52.126;20.664;2022-12-18T02:57:46;101889.16;;;-4.42;99.05
55759;BME280;41678;52.126;20.664;2022-12-18T03:03:29;101888.06;;;-4.45;98.63
55759;BME280;41678;52.126;20.664;2022-12-18T03:08:57;101903.56;;;-4.44;98.35
55759;BME280;41678;52.126;20.664;2022-12-18T03:14:20;101916.22;;;-4.47;98.52
55759;BME280;41678;52.126;20.664;2022-12-18T03:19:43;101922.91;;;-4.49;98.21
55759;BME280;41678;52.126;20.664;2022-12-18T03:25:08;101923.94;;;-4.47;98.19
55759;BME280;41678;52.126;20.664;2022-12-18T03:30:32;101929.06;;;-4.47;98.26
55759;BME280;41678;52.126;20.664;2022-12-18T03:35:54;101925.50;;;-4.49;98.41
55759;BME280;41678;52.126;20.664;2022-12-18T03:41:23;101920.91;;;-4.53;98.21
55759;BME280;41678;52.126;20.664;2022-12-18T03:47:22;101933.63;;;-4.55;98.31
55759;BME280;41678;52.126;20.664;2022-12-18T03:52:55;101938.63;;;-4.56;98.36
55759;BME280;41678;52.126;20.664;2022-12-18T03:58:20;101955.25;;;-4.63;98.15
55759;BME280;41678;52.126;20.664;2022-12-18T04:04:06;101961.53;;;-4.59;98.35
55759;BME280;41678;52.126;20.664;2022-12-18T04:09:32;101964.91;;;-4.60;98.26
55759;BME280;41678;52.126;20.664;2022-12-18T04:14:53;101972.59;;;-4.60;98.50
55759;BME280;41678;52.126;20.664;2022-12-18T04:20:13;101979.31;;;-4.62;98.40
55759;BME280;41678;52.126;20.664;2022-12-18T04:25:36;101988.69;;;-4.63;98.17
55759;BME280;41678;52.126;20.664;2022-12-18T04:31:02;102000.88;;;-4.60;98.33
55759;BME280;41678;52.126;20.664;2022-12-18T04:36:22;102011.72;;;-4.64;97.96
55759;BME280;41678;52.126;20.664;2022-12-18T04:41:42;102020.31;;;-4.64;97.79
55759;BME280;41678;52.126;20.664;2022-12-18T04:47:03;102031.28;;;-4.66;97.96
55759;BME280;41678;52.126;20.664;2022-12-18T04:52:23;102039.50;;;-4.71;97.88
55759;BME280;41678;52.126;20.664;2022-12-18T04:57:42;102040.28;;;-4.72;98.31
55759;BME280;41678;52.126;20.664;2022-12-18T05:03:02;102040.53;;;-4.68;97.96
55759;BME280;41678;52.126;20.664;2022-12-18T05:08:22;102057.63;;;-4.69;97.88
55759;BME280;41678;52.126;20.664;2022-12-18T05:13:43;102067.66;;;-4.72;97.93
55759;BME280;41678;52.126;20.664;2022-12-18T05:19:03;102070.78;;;-4.76;98.28
55759;BME280;41678;52.126;20.664;2022-12-18T05:24:22;102072.19;;;-4.80;97.95
55759;BME280;41678;52.126;20.664;2022-12-18T05:29:42;102068.31;;;-4.75;97.95
55759;BME280;41678;52.126;20.664;2022-12-18T05:35:03;102077.56;;;-4.77;97.86
55759;BME280;41678;52.126;20.664;2022-12-18T05:40:23;102083.34;;;-4.79;97.64
55759;BME280;41678;52.126;20.664;2022-12-18T05:45:43;102079.41;;;-4.86;97.66
55759;BME280;41678;52.126;20.664;2022-12-18T05:51:09;102086.75;;;-4.91;98.04
55759;BME280;41678;52.126;20.664;2022-12-18T05:56:29;102092.41;;;-4.95;98.06
55759;BME280;41678;52.126;20.664;2022-12-18T06:01:48;102104.00;;;-5.00;98.07
55759;BME280;41678;52.126;20.664;2022-12-18T06:07:07;102105.41;;;-5.04;98.12
55759;BME280;41678;52.126;20.664;2022-12-18T06:12:27;102126.63;;;-5.06;97.98
55759;BME280;41678;52.126;20.664;2022-12-18T06:17:47;102136.78;;;-5.08;97.81
55759;BME280;41678;52.126;20.664;2022-12-18T06:23:07;102144.47;;;-5.08;98.23
55759;BME280;41678;52.126;20.664;2022-12-18T06:28:28;102158.22;;;-5.07;98.08
55759;BME280;41678;52.126;20.664;2022-12-18T06:33:48;102166.69;;;-5.08;97.97
55759;BME280;41678;52.126;20.664;2022-12-18T06:39:08;102177.88;;;-5.08;98.29
55759;BME280;41678;52.126;20.664;2022-12-18T06:44:27;102186.75;;;-5.15;97.95
55759;BME280;41678;52.126;20.664;2022-12-18T06:49:47;102200.22;;;-5.07;98.16
55759;BME280;41678;52.126;20.664;2022-12-18T06:55:08;102205.09;;;-5.10;98.17
55759;BME280;41678;52.126;20.664;2022-12-18T07:00:29;102204.72;;;-5.15;98.18
55759;BME280;41678;52.126;20.664;2022-12-18T07:05:48;102210.50;;;-5.17;98.24
55759;BME280;41678;52.126;20.664;2022-12-18T07:11:08;102213.97;;;-5.17;98.24
55759;BME280;41678;52.126;20.664;2022-12-18T07:16:28;102228.75;;;-5.14;97.96
55759;BME280;41678;52.126;20.664;2022-12-18T07:21:50;102230.25;;;-5.16;98.31
55759;BME280;41678;52.126;20.664;2022-12-18T07:27:10;102246.06;;;-5.01;98.06
55759;BME280;41678;52.126;20.664;2022-12-18T07:32:30;102245.56;;;-5.07;98.09
55759;BME280;41678;52.126;20.664;2022-12-18T07:37:50;102253.28;;;-5.07;98.17
55759;BME280;41678;52.126;20.664;2022-12-18T07:43:09;102266.50;;;-5.03;98.02
55759;BME280;41678;52.126;20.664;2022-12-18T07:48:29;102280.00;;;-5.05;98.11
55759;BME280;41678;52.126;20.664;2022-12-18T07:53:48;102285.13;;;-5.05;98.23
55759;BME280;41678;52.126;20.664;2022-12-18T07:59:08;102291.69;;;-5.09;98.30
55759;BME280;41678;52.126;20.664;2022-12-18T08:04:27;102299.63;;;-5.06;98.05
55759;BME280;41678;52.126;20.664;2022-12-18T08:09:47;102310.81;;;-4.95;97.86
55759;BME280;41678;52.126;20.664;2022-12-18T08:15:07;102326.75;;;-4.99;98.00
55759;BME280;41678;52.126;20.664;2022-12-18T08:20:27;102329.47;;;-4.98;97.93
55759;BME280;41678;52.126;20.664;2022-12-18T08:25:46;102342.16;;;-4.99;97.80
55759;BME280;41678;52.126;20.664;2022-12-18T08:31:07;102337.03;;;-4.99;98.01
55759;BME280;41678;52.126;20.664;2022-12-18T08:36:27;102343.19;;;-4.97;97.80
55759;BME280;41678;52.126;20.664;2022-12-18T08:41:47;102344.09;;;-4.96;97.67
55759;BME280;41678;52.126;20.664;2022-12-18T08:47:26;102348.72;;;-4.92;97.52
55759;BME280;41678;52.126;20.664;2022-12-18T08:52:46;102356.44;;;-4.92;97.86
55759;BME280;41678;52.126;20.664;2022-12-18T08:58:06;102360.16;;;-4.89;98.06
55759;BME280;41678;52.126;20.664;2022-12-18T09:03:25;102352.22;;;-4.92;97.95
55759;BME280;41678;52.126;20.664;2022-12-18T09:08:45;102373.66;;;-4.81;97.90
55759;BME280;41678;52.126;20.664;2022-12-18T09:14:05;102377.50;;;-4.76;98.02
55759;BME280;41678;52.126;20.664;2022-12-18T09:19:25;102373.53;;;-4.72;98.05
55759;BME280;41678;52.126;20.664;2022-12-18T09:24:45;102392.72;;;-4.68;97.97
55759;BME280;41678;52.126;20.664;2022-12-18T09:30:05;102382.91;;;-4.73;98.08
55759;BME280;41678;52.126;20.664;2022-12-18T09:35:25;102382.78;;;-4.64;97.71
55759;BME280;41678;52.126;20.664;2022-12-18T09:40:49;102375.22;;;-4.62;98.13
55759;BME280;41678;52.126;20.664;2022-12-18T09:46:19;102380.84;;;-4.56;97.98
55759;BME280;41678;52.126;20.664;2022-12-18T09:51:47;102395.50;;;-4.55;97.98
55759;BME280;41678;52.126;20.664;2022-12-18T09:57:17;102411.88;;;-4.44;98.04
55759;BME280;41678;52.126;20.664;2022-12-18T10:02:39;102416.09;;;-4.45;98.15
55759;BME280;41678;52.126;20.664;2022-12-18T10:08:06;102412.63;;;-4.35;98.32
55759;BME280;41678;52.126;20.664;2022-12-18T10:13:46;102399.63;;;-4.26;97.93
55759;BME280;41678;52.126;20.664;2022-12-18T10:20:21;102397.03;;;-4.26;97.99
55759;BME280;41678;52.126;20.664;2022-12-18T10:25:18;102398.72;;;-4.16;98.18
55759;BME280;41678;52.126;20.664;2022-12-18T10:30:41;102401.16;;;-4.18;97.96
55759;BME280;41678;52.126;20.664;2022-12-18T10:36:01;102400.00;;;-4.11;98.40
55759;BME280;41678;52.126;20.664;2022-12-18T10:41:26;102404.63;;;-4.07;98.22
55759;BME280;41678;52.126;20.664;2022-12-18T10:46:49;102399.84;;;-4.02;98.14
55759;BME280;41678;52.126;20.664;2022-12-18T10:52:21;102396.88;;;-3.96;98.31
55759;BME280;41678;52.126;20.664;2022-12-18T10:57:40;102401.41;;;-3.94;98.09
55759;BME280;41678;52.126;20.664;2022-12-18T11:03:00;102413.06;;;-3.87;97.95
55759;BME280;41678;52.126;20.664;2022-12-18T11:08:21;102406.13;;;-3.88;97.88
55759;BME280;41678;52.126;20.664;2022-12-18T11:14:14;102396.09;;;-3.85;97.87
55759;BME280;41678;52.126;20.664;2022-12-18T11:19:39;102398.78;;;-3.84;97.81
55759;BME280;41678;52.126;20.664;2022-12-18T11:25:18;102403.44;;;-3.90;98.02
55759;BME280;41678;52.126;20.664;2022-12-18T11:30:38;102397.25;;;-3.92;97.99
55759;BME280;41678;52.126;20.664;2022-12-18T11:36:01;102417.31;;;-3.88;98.07
55759;BME280;41678;52.126;20.664;2022-12-18T11:41:30;102422.19;;;-3.80;97.78
55759;BME280;41678;52.126;20.664;2022-12-18T11:52:49;102416.94;;;-3.82;98.14
55759;BME280;41678;52.126;20.664;2022-12-18T12:09:19;102428.78;;;-3.94;97.74
55759;BME280;41678;52.126;20.664;2022-12-18T12:26:22;102429.97;;;-4.01;97.64
55759;BME280;41678;52.126;20.664;2022-12-18T12:32:01;102436.66;;;-4.03;97.71
55759;BME280;41678;52.126;20.664;2022-12-18T12:38:14;102457.00;;;-4.06;97.60
55759;BME280;41678;52.126;20.664;2022-12-18T12:43:22;102462.88;;;-3.97;97.56
55759;BME280;41678;52.126;20.664;2022-12-18T12:48:47;102470.34;;;-4.00;97.46
55759;BME280;41678;52.126;20.664;2022-12-18T12:54:17;102491.72;;;-4.01;97.20
55759;BME280;41678;52.126;20.664;2022-12-18T13:00:02;102486.84;;;-4.19;97.72
55759;BME280;41678;52.126;20.664;2022-12-18T13:05:38;102498.56;;;-4.12;97.55
55759;BME280;41678;52.126;20.664;2022-12-18T13:10:59;102493.66;;;-4.19;97.60
55759;BME280;41678;52.126;20.664;2022-12-18T13:16:38;102502.28;;;-4.19;97.59
55759;BME280;41678;52.126;20.664;2022-12-18T13:21:58;102501.34;;;-4.19;97.51
55759;BME280;41678;52.126;20.664;2022-12-18T13:38:43;102518.06;;;-4.35;97.95
55759;BME280;41678;52.126;20.664;2022-12-18T13:49:41;102513.06;;;-4.33;97.77
55759;BME280;41678;52.126;20.664;2022-12-18T13:55:06;102522.97;;;-4.28;97.71
55759;BME280;41678;52.126;20.664;2022-12-18T14:00:30;102526.97;;;-4.31;97.94
55759;BME280;41678;52.126;20.664;2022-12-18T14:06:00;102531.22;;;-4.32;97.89
55759;BME280;41678;52.126;20.664;2022-12-18T14:11:22;102529.91;;;-4.37;98.05
55759;BME280;41678;52.126;20.664;2022-12-18T14:16:42;102529.28;;;-4.34;97.86
55759;BME280;41678;52.126;20.664;2022-12-18T14:22:01;102533.88;;;-4.41;97.94
55759;BME280;41678;52.126;20.664;2022-12-18T14:27:24;102544.41;;;-4.48;98.05
55759;BME280;41678;52.126;20.664;2022-12-18T14:32:59;102551.38;;;-4.47;97.71
55759;BME280;41678;52.126;20.664;2022-12-18T14:38:30;102551.38;;;-4.47;98.02
55759;BME280;41678;52.126;20.664;2022-12-18T14:43:52;102557.28;;;-4.48;97.49
55759;BME280;41678;52.126;20.664;2022-12-18T14:54:37;102569.88;;;-4.51;97.82
55759;BME280;41678;52.126;20.664;2022-12-18T15:00:07;102562.13;;;-4.61;98.14
55759;BME280;41678;52.126;20.664;2022-12-18T15:05:31;102566.50;;;-4.60;97.91
55759;BME280;41678;52.126;20.664;2022-12-18T15:10:50;102562.63;;;-4.65;97.84
55759;BME280;41678;52.126;20.664;2022-12-18T15:16:11;102559.25;;;-4.75;98.09
55759;BME280;41678;52.126;20.664;2022-12-18T15:21:32;102569.56;;;-4.64;97.93
55759;BME280;41678;52.126;20.664;2022-12-18T15:26:52;102564.94;;;-4.68;97.75
55759;BME280;41678;52.126;20.664;2022-12-18T15:32:19;102585.50;;;-4.68;97.94
55759;BME280;41678;52.126;20.664;2022-12-18T15:37:39;102588.72;;;-4.71;97.96
55759;BME280;41678;52.126;20.664;2022-12-18T15:42:59;102595.78;;;-4.68;97.96
55759;BME280;41678;52.126;20.664;2022-12-18T15:48:40;102593.16;;;-4.79;97.91
55759;BME280;41678;52.126;20.664;2022-12-18T15:54:02;102598.41;;;-4.88;97.97
55759;BME280;41678;52.126;20.664;2022-12-18T15:59:23;102598.59;;;-4.95;98.15
55759;BME280;41678;52.126;20.664;2022-12-18T16:04:42;102587.19;;;-4.99;97.93
55759;BME280;41678;52.126;20.664;2022-12-18T16:10:02;102586.63;;;-5.05;98.08
55759;BME280;41678;52.126;20.664;2022-12-18T16:15:22;102597.94;;;-5.03;97.78
55759;BME280;41678;52.126;20.664;2022-12-18T16:20:42;102608.84;;;-5.05;97.73
55759;BME280;41678;52.126;20.664;2022-12-18T16:26:01;102605.88;;;-5.10;98.04
55759;BME280;41678;52.126;20.664;2022-12-18T16:31:22;102606.56;;;-5.21;97.78
55759;BME280;41678;52.126;20.664;2022-12-18T16:36:42;102615.88;;;-5.13;98.03
55759;BME280;41678;52.126;20.664;2022-12-18T16:42:03;102621.47;;;-5.17;98.02
55759;BME280;41678;52.126;20.664;2022-12-18T16:47:23;102626.75;;;-5.16;97.84
55759;BME280;41678;52.126;20.664;2022-12-18T16:52:43;102631.38;;;-5.22;97.93
55759;BME280;41678;52.126;20.664;2022-12-18T16:58:03;102626.63;;;-5.36;98.05
55759;BME280;41678;52.126;20.664;2022-12-18T17:03:23;102625.56;;;-5.38;97.69
55759;BME280;41678;52.126;20.664;2022-12-18T17:08:42;102637.09;;;-5.44;98.02
55759;BME280;41678;52.126;20.664;2022-12-18T17:14:14;102627.94;;;-5.50;98.11
55759;BME280;41678;52.126;20.664;2022-12-18T17:19:34;102620.50;;;-5.47;97.92
55759;BME280;41678;52.126;20.664;2022-12-18T17:24:54;102635.50;;;-5.52;97.80
55759;BME280;41678;52.126;20.664;2022-12-18T17:30:14;102641.75;;;-5.59;98.03
55759;BME280;41678;52.126;20.664;2022-12-18T17:35:34;102656.09;;;-5.61;97.90
55759;BME280;41678;52.126;20.664;2022-12-18T17:41:02;102655.75;;;-5.55;97.93
55759;BME280;41678;52.126;20.664;2022-12-18T17:46:22;102666.31;;;-5.52;97.41
55759;BME280;41678;52.126;20.664;2022-12-18T17:51:42;102662.78;;;-5.72;97.65
55759;BME280;41678;52.126;20.664;2022-12-18T17:57:02;102668.88;;;-5.80;98.03
55759;BME280;41678;52.126;20.664;2022-12-18T18:02:22;102679.59;;;-5.84;97.57
55759;BME280;41678;52.126;20.664;2022-12-18T18:07:42;102673.75;;;-5.92;97.98
55759;BME280;41678;52.126;20.664;2022-12-18T18:13:02;102667.13;;;-5.90;97.61
55759;BME280;41678;52.126;20.664;2022-12-18T18:18:40;102660.09;;;-6.01;97.71
55759;BME280;41678;52.126;20.664;2022-12-18T18:24:01;102648.97;;;-6.10;98.01
55759;BME280;41678;52.126;20.664;2022-12-18T18:29:23;102643.41;;;-6.15;98.04
55759;BME280;41678;52.126;20.664;2022-12-18T18:34:43;102630.16;;;-6.20;97.61
55759;BME280;41678;52.126;20.664;2022-12-18T18:40:03;102637.56;;;-6.32;97.68
55759;BME280;41678;52.126;20.664;2022-12-18T18:45:23;102666.25;;;-6.36;97.42
55759;BME280;41678;52.126;20.664;2022-12-18T18:50:42;102653.44;;;-6.36;97.66
55759;BME280;41678;52.126;20.664;2022-12-18T18:56:08;102667.19;;;-6.53;97.89
55759;BME280;41678;52.126;20.664;2022-12-18T19:01:29;102660.88;;;-6.57;97.79
55759;BME280;41678;52.126;20.664;2022-12-18T19:06:48;102651.09;;;-6.52;97.60
55759;BME280;41678;52.126;20.664;2022-12-18T19:12:08;102653.22;;;-6.65;98.18
55759;BME280;41678;52.126;20.664;2022-12-18T19:17:46;102657.72;;;-6.72;98.24
55759;BME280;41678;52.126;20.664;2022-12-18T19:23:06;102649.28;;;-6.71;98.13
55759;BME280;41678;52.126;20.664;2022-12-18T19:28:26;102661.66;;;-6.66;98.29
55759;BME280;41678;52.126;20.664;2022-12-18T19:33:47;102669.47;;;-6.65;98.41
55759;BME280;41678;52.126;20.664;2022-12-18T19:39:12;102668.88;;;-6.62;98.67
55759;BME280;41678;52.126;20.664;2022-12-18T19:44:32;102675.22;;;-6.59;98.36
55759;BME280;41678;52.126;20.664;2022-12-18T19:49:51;102685.78;;;-6.64;98.50
55759;BME280;41678;52.126;20.664;2022-12-18T19:55:11;102672.19;;;-6.55;98.71
55759;BME280;41678;52.126;20.664;2022-12-18T20:00:30;102659.09;;;-6.66;98.81
55759;BME280;41678;52.126;20.664;2022-12-18T20:05:49;102663.78;;;-6.80;99.08
55759;BME280;41678;52.126;20.664;2022-12-18T20:11:09;102657.59;;;-6.73;98.69
55759;BME280;41678;52.126;20.664;2022-12-18T20:16:29;102664.81;;;-6.69;98.75
55759;BME280;41678;52.126;20.664;2022-12-18T20:21:49;102661.34;;;-6.70;98.37
55759;BME280;41678;52.126;20.664;2022-12-18T20:27:09;102681.25;;;-6.76;98.57
55759;BME280;41678;52.126;20.664;2022-12-18T20:32:29;102694.38;;;-6.81;98.78
55759;BME280;41678;52.126;20.664;2022-12-18T20:37:48;102718.94;;;-6.92;98.57
55759;BME280;41678;52.126;20.664;2022-12-18T20:43:08;102718.66;;;-6.95;98.89
55759;BME280;41678;52.126;20.664;2022-12-18T20:48:28;102723.03;;;-6.94;99.03
55759;BME280;41678;52.126;20.664;2022-12-18T20:53:48;102714.41;;;-6.95;98.95
55759;BME280;41678;52.126;20.664;2022-12-18T20:59:08;102713.81;;;-6.92;98.73
55759;BME280;41678;52.126;20.664;2022-12-18T21:04:28;102721.03;;;-6.79;98.43
55759;BME280;41678;52.126;20.664;2022-12-18T21:09:57;102716.38;;;-6.75;98.58
55759;BME280;41678;52.126;20.664;2022-12-18T21:15:16;102707.78;;;-6.84;98.73
55759;BME280;41678;52.126;20.664;2022-12-18T21:20:36;102699.78;;;-6.87;99.10
55759;BME280;41678;52.126;20.664;2022-12-18T21:26:14;102692.09;;;-6.87;98.74
55759;BME280;41678;52.126;20.664;2022-12-18T21:31:35;102680.34;;;-6.85;98.82
55759;BME280;41678;52.126;20.664;2022-12-18T21:36:57;102667.53;;;-6.85;98.65
55759;BME280;41678;52.126;20.664;2022-12-18T21:42:17;102654.44;;;-6.79;98.91
55759;BME280;41678;52.126;20.664;2022-12-18T21:47:56;102632.31;;;-6.88;98.65
55759;BME280;41678;52.126;20.664;2022-12-18T21:53:15;102623.69;;;-6.88;98.82
55759;BME280;41678;52.126;20.664;2022-12-18T21:58:35;102602.44;;;-6.78;98.44
55759;BME280;41678;52.126;20.664;2022-12-18T22:03:54;102602.91;;;-6.83;98.53
55759;BME280;41678;52.126;20.664;2022-12-18T22:09:16;102625.50;;;-6.87;98.53
55759;BME280;41678;52.126;20.664;2022-12-18T22:14:36;102626.13;;;-6.90;99.11
55759;BME280;41678;52.126;20.664;2022-12-18T22:19:56;102620.06;;;-6.73;98.80
55759;BME280;41678;52.126;20.664;2022-12-18T22:25:16;102624.88;;;-6.67;98.62
55759;BME280;41678;52.126;20.664;2022-12-18T22:30:36;102605.44;;;-6.74;98.79
55759;BME280;41678;52.126;20.664;2022-12-18T22:35:56;102618.09;;;-6.66;98.71
55759;BME280;41678;52.126;20.664;2022-12-18T22:41:15;102610.53;;;-6.65;98.91
55759;BME280;41678;52.126;20.664;2022-12-18T22:46:38;102601.66;;;-6.69;98.69
55759;BME280;41678;52.126;20.664;2022-12-18T22:51:58;102585.69;;;-6.75;98.59
55759;BME280;41678;52.126;20.664;2022-12-18T22:57:18;102585.69;;;-6.66;98.26
55759;BME280;41678;52.126;20.664;2022-12-18T23:02:37;102582.38;;;-6.74;98.42
55759;BME280;41678;52.126;20.664;2022-12-18T23:07:57;102584.78;;;-6.66;98.58
55759;BME280;41678;52.126;20.664;2022-12-18T23:13:17;102561.84;;;-6.65;98.46
55759;BME280;41678;52.126;20.664;2022-12-18T23:18:37;102576.19;;;-6.67;98.69
55759;BME280;41678;52.126;20.664;2022-12-18T23:23:57;102562.91;;;-6.63;98.18
55759;BME280;41678;52.126;20.664;2022-12-18T23:29:17;102574.50;;;-6.58;98.30
55759;BME280;41678;52.126;20.664;2022-12-18T23:34:36;102566.22;;;-6.64;98.44
55759;BME280;41678;52.126;20.664;2022-12-18T23:39:55;102573.03;;;-6.64;98.22
55759;BME280;41678;52.126;20.664;2022-12-18T23:45:15;102581.03;;;-6.70;98.61
55759;BME280;41678;52.126;20.664;2022-12-18T23:50:35;102566.84;;;-6.66;98.32
55759;BME280;41678;52.126;20.664;2022-12-18T23:55:54;102557.03;;;-6.71;98.35
